sensor_id;sensor_type;location;lat;lon;timestamp;pressure;altitude;pressure_sealevel;temperature
15709;BMP180;7954;51.914;8.420;2023-07-31T00:00:12;99763.44;;;22.66
15709;BMP180;7954;51.914;8.420;2023-07-31T00:02:41;99757.91;;;22.70
15709;BMP180;7954;51.914;8.420;2023-07-31T00:05:09;99751.16;;;22.64
15709;BMP180;7954;51.914;8.420;2023-07-31T00:07:37;99760.53;;;22.63
15709;BMP180;7954;51.914;8.420;2023-07-31T00:10:06;99758.28;;;22.66
15709;BMP180;7954;51.914;8.420;2023-07-31T00:12:34;99752.97;;;22.65
15709;BMP180;7954;51.914;8.420;2023-07-31T00:15:02;99747.50;;;22.62
15709;BMP180;7954;51.914;8.420;2023-07-31T00:17:32;99743.50;;;22.72
15709;BMP180;7954;51.914;8.420;2023-07-31T00:20:01;99743.50;;;22.72
15709;BMP180;7954;51.914;8.420;2023-07-31T00:22:29;99744.84;;;22.69
15709;BMP180;7954;51.914;8.420;2023-07-31T00:24:57;99749.16;;;22.77
15709;BMP180;7954;51.914;8.420;2023-07-31T00:27:26;99747.00;;;22.73
15709;BMP180;7954;51.914;8.420;2023-07-31T00:29:53;99751.66;;;22.68
15709;BMP180;7954;51.914;8.420;2023-07-31T00:32:21;99746.19;;;22.65
15709;BMP180;7954;51.914;8.420;2023-07-31T00:34:51;99746.94;;;22.64
15709;BMP180;7954;51.914;8.420;2023-07-31T00:37:19;99744.50;;;22.66
15709;BMP180;7954;51.914;8.420;2023-07-31T00:39:48;99747.59;;;22.55
15709;BMP180;7954;51.914;8.420;2023-07-31T00:42:16;99744.94;;;22.47
15709;BMP180;7954;51.914;8.420;2023-07-31T00:44:44;99742.28;;;22.54
15709;BMP180;7954;51.914;8.420;2023-07-31T00:47:12;99733.47;;;22.52
15709;BMP180;7954;51.914;8.420;2023-07-31T00:49:40;99744.53;;;22.51
15709;BMP180;7954;51.914;8.420;2023-07-31T00:52:10;99747.91;;;22.43
15709;BMP180;7954;51.914;8.420;2023-07-31T00:54:39;99744.28;;;22.41
15709;BMP180;7954;51.914;8.420;2023-07-31T00:57:07;99739.03;;;22.48
15709;BMP180;7954;51.914;8.420;2023-07-31T00:59:35;99746.63;;;22.31
15709;BMP180;7954;51.914;8.420;2023-07-31T01:02:04;99751.03;;;22.25
15709;BMP180;7954;51.914;8.420;2023-07-31T01:04:33;99753.56;;;22.32
15709;BMP180;7954;51.914;8.420;2023-07-31T01:07:06;99738.41;;;22.04
15709;BMP180;7954;51.914;8.420;2023-07-31T01:09:44;99746.16;;;21.97
15709;BMP180;7954;51.914;8.420;2023-07-31T01:12:16;99750.16;;;21.87
15709;BMP180;7954;51.914;8.420;2023-07-31T01:14:51;99754.75;;;21.82
15709;BMP180;7954;51.914;8.420;2023-07-31T01:17:20;99757.75;;;21.78
15709;BMP180;7954;51.914;8.420;2023-07-31T01:19:48;99757.63;;;21.70
15709;BMP180;7954;51.914;8.420;2023-07-31T01:25:20;99757.88;;;21.64
15709;BMP180;7954;51.914;8.420;2023-07-31T01:27:59;99759.06;;;21.52
15709;BMP180;7954;51.914;8.420;2023-07-31T01:30:32;99752.81;;;21.50
15709;BMP180;7954;51.914;8.420;2023-07-31T01:33:03;99745.47;;;21.53
15709;BMP180;7954;51.914;8.420;2023-07-31T01:35:34;99743.25;;;21.56
15709;BMP180;7954;51.914;8.420;2023-07-31T01:38:02;99747.50;;;21.49
15709;BMP180;7954;51.914;8.420;2023-07-31T01:40:30;99739.31;;;21.37
15709;BMP180;7954;51.914;8.420;2023-07-31T01:42:59;99743.72;;;21.38
15709;BMP180;7954;51.914;8.420;2023-07-31T01:45:28;99733.28;;;21.37
15709;BMP180;7954;51.914;8.420;2023-07-31T01:47:56;99735.31;;;21.32
15709;BMP180;7954;51.914;8.420;2023-07-31T01:50:24;99732.94;;;21.34
15709;BMP180;7954;51.914;8.420;2023-07-31T01:52:51;99730.66;;;21.22
15709;BMP180;7954;51.914;8.420;2023-07-31T01:55:19;99724.97;;;21.17
15709;BMP180;7954;51.914;8.420;2023-07-31T01:57:47;99722.97;;;21.15
15709;BMP180;7954;51.914;8.420;2023-07-31T02:00:18;99721.88;;;21.13
15709;BMP180;7954;51.914;8.420;2023-07-31T02:02:47;99712.44;;;21.27
15709;BMP180;7954;51.914;8.420;2023-07-31T02:05:15;99713.75;;;21.24
15709;BMP180;7954;51.914;8.420;2023-07-31T02:07:42;99713.28;;;21.34
15709;BMP180;7954;51.914;8.420;2023-07-31T02:10:10;99709.31;;;21.30
15709;BMP180;7954;51.914;8.420;2023-07-31T02:12:38;99698.63;;;21.33
15709;BMP180;7954;51.914;8.420;2023-07-31T02:15:07;99701.88;;;21.39
15709;BMP180;7954;51.914;8.420;2023-07-31T02:17:36;99706.31;;;21.33
15709;BMP180;7954;51.914;8.420;2023-07-31T02:20:05;99696.22;;;21.35
15709;BMP180;7954;51.914;8.420;2023-07-31T02:22:34;99689.78;;;21.38
15709;BMP180;7954;51.914;8.420;2023-07-31T02:25:02;99692.63;;;21.48
15709;BMP180;7954;51.914;8.420;2023-07-31T02:27:30;99693.56;;;21.49
15709;BMP180;7954;51.914;8.420;2023-07-31T02:29:58;99693.34;;;21.54
15709;BMP180;7954;51.914;8.420;2023-07-31T02:32:26;99678.13;;;21.49
15709;BMP180;7954;51.914;8.420;2023-07-31T02:34:56;99693.34;;;21.54
15709;BMP180;7954;51.914;8.420;2023-07-31T02:37:25;99685.63;;;21.54
15709;BMP180;7954;51.914;8.420;2023-07-31T02:39:55;99674.63;;;21.55
15709;BMP180;7954;51.914;8.420;2023-07-31T02:42:23;99683.81;;;21.53
15709;BMP180;7954;51.914;8.420;2023-07-31T02:44:51;99678.50;;;21.52
15709;BMP180;7954;51.914;8.420;2023-07-31T02:47:22;99664.91;;;21.53
15709;BMP180;7954;51.914;8.420;2023-07-31T02:49:50;99674.38;;;21.61
15709;BMP180;7954;51.914;8.420;2023-07-31T02:52:21;99658.94;;;21.61
15709;BMP180;7954;51.914;8.420;2023-07-31T02:54:49;99666.09;;;21.63
15709;BMP180;7954;51.914;8.420;2023-07-31T02:57:17;99667.97;;;21.57
15709;BMP180;7954;51.914;8.420;2023-07-31T02:59:45;99667.97;;;21.57
15709;BMP180;7954;51.914;8.420;2023-07-31T03:02:13;99666.34;;;21.58
15709;BMP180;7954;51.914;8.420;2023-07-31T03:04:41;99662.50;;;21.54
15709;BMP180;7954;51.914;8.420;2023-07-31T03:07:09;99652.09;;;21.46
15709;BMP180;7954;51.914;8.420;2023-07-31T03:09:40;99659.63;;;21.51
15709;BMP180;7954;51.914;8.420;2023-07-31T03:12:08;99658.28;;;21.55
15709;BMP180;7954;51.914;8.420;2023-07-31T03:14:36;99662.69;;;21.56
15709;BMP180;7954;51.914;8.420;2023-07-31T03:17:05;99658.38;;;21.63
15709;BMP180;7954;51.914;8.420;2023-07-31T03:19:33;99689.44;;;21.80
15709;BMP180;7954;51.914;8.420;2023-07-31T03:22:01;99666.94;;;21.71
15709;BMP180;7954;51.914;8.420;2023-07-31T03:24:29;99662.88;;;21.73
15709;BMP180;7954;51.914;8.420;2023-07-31T03:26:58;99663.09;;;21.67
15709;BMP180;7954;51.914;8.420;2023-07-31T03:29:27;99665.63;;;21.74
15709;BMP180;7954;51.914;8.420;2023-07-31T03:31:55;99663.56;;;21.79
15709;BMP180;7954;51.914;8.420;2023-07-31T03:34:22;99661.56;;;21.76
15709;BMP180;7954;51.914;8.420;2023-07-31T03:36:51;99663.72;;;21.80
15709;BMP180;7954;51.914;8.420;2023-07-31T03:39:18;99666.47;;;21.82
15709;BMP180;7954;51.914;8.420;2023-07-31T03:41:47;99660.91;;;21.86
15709;BMP180;7954;51.914;8.420;2023-07-31T03:44:17;99658.16;;;21.84
15709;BMP180;7954;51.914;8.420;2023-07-31T03:46:45;99660.91;;;21.70
15709;BMP180;7954;51.914;8.420;2023-07-31T03:49:13;99668.66;;;21.63
15709;BMP180;7954;51.914;8.420;2023-07-31T03:51:41;99662.09;;;21.58
15709;BMP180;7954;51.914;8.420;2023-07-31T03:54:10;99667.97;;;21.57
15709;BMP180;7954;51.914;8.420;2023-07-31T03:56:40;99648.88;;;21.78
15709;BMP180;7954;51.914;8.420;2023-07-31T03:59:08;99664.63;;;21.81
15709;BMP180;7954;51.914;8.420;2023-07-31T04:01:40;99658.91;;;21.83
15709;BMP180;7954;51.914;8.420;2023-07-31T04:04:08;99656.34;;;21.68
15709;BMP180;7954;51.914;8.420;2023-07-31T04:06:36;99661.56;;;21.76
15709;BMP180;7954;51.914;8.420;2023-07-31T04:09:04;99662.06;;;21.81
15709;BMP180;7954;51.914;8.420;2023-07-31T04:11:33;99661.06;;;21.87
15709;BMP180;7954;51.914;8.420;2023-07-31T04:14:01;99658.00;;;21.83
15709;BMP180;7954;51.914;8.420;2023-07-31T04:16:29;99659.25;;;21.86
15709;BMP180;7954;51.914;8.420;2023-07-31T04:18:58;99667.78;;;21.78
15709;BMP180;7954;51.914;8.420;2023-07-31T04:21:26;99665.41;;;21.95
15709;BMP180;7954;51.914;8.420;2023-07-31T04:23:54;99662.41;;;21.84
15709;BMP180;7954;51.914;8.420;2023-07-31T04:26:25;99664.31;;;21.93
15709;BMP180;7954;51.914;8.420;2023-07-31T04:28:52;99674.50;;;21.85
15709;BMP180;7954;51.914;8.420;2023-07-31T04:31:20;99660.63;;;21.76
15709;BMP180;7954;51.914;8.420;2023-07-31T04:33:49;99676.63;;;21.73
15709;BMP180;7954;51.914;8.420;2023-07-31T04:36:18;99670.75;;;21.74
15709;BMP180;7954;51.914;8.420;2023-07-31T04:38:46;99664.53;;;21.72
15709;BMP180;7954;51.914;8.420;2023-07-31T04:41:14;99654.34;;;21.81
15709;BMP180;7954;51.914;8.420;2023-07-31T04:43:42;99648.06;;;22.01
15709;BMP180;7954;51.914;8.420;2023-07-31T04:46:10;99655.84;;;22.09
15709;BMP180;7954;51.914;8.420;2023-07-31T04:48:38;99656.28;;;22.21
15709;BMP180;7954;51.914;8.420;2023-07-31T04:51:06;99659.50;;;22.11
15709;BMP180;7954;51.914;8.420;2023-07-31T04:53:36;99655.63;;;22.15
15709;BMP180;7954;51.914;8.420;2023-07-31T04:56:03;99647.91;;;22.15
15709;BMP180;7954;51.914;8.420;2023-07-31T04:58:31;99656.03;;;22.11
15709;BMP180;7954;51.914;8.420;2023-07-31T05:00:59;99649.06;;;22.10
15709;BMP180;7954;51.914;8.420;2023-07-31T05:03:27;99649.47;;;22.06
15709;BMP180;7954;51.914;8.420;2023-07-31T05:05:55;99662.31;;;21.91
15709;BMP180;7954;51.914;8.420;2023-07-31T05:08:23;99654.03;;;22.08
15709;BMP180;7954;51.914;8.420;2023-07-31T05:10:53;99653.69;;;22.05
15709;BMP180;7954;51.914;8.420;2023-07-31T05:13:20;99658.34;;;22.16
15709;BMP180;7954;51.914;8.420;2023-07-31T05:15:49;99651.56;;;22.32
15709;BMP180;7954;51.914;8.420;2023-07-31T05:18:17;99653.22;;;22.32
15709;BMP180;7954;51.914;8.420;2023-07-31T05:20:45;99650.06;;;22.50
15709;BMP180;7954;51.914;8.420;2023-07-31T05:23:13;99651.66;;;22.41
15709;BMP180;7954;51.914;8.420;2023-07-31T05:25:41;99643.16;;;22.42
15709;BMP180;7954;51.914;8.420;2023-07-31T05:28:12;99649.34;;;22.59
15709;BMP180;7954;51.914;8.420;2023-07-31T05:30:40;99652.03;;;22.52
15709;BMP180;7954;51.914;8.420;2023-07-31T05:33:08;99655.50;;;22.53
15709;BMP180;7954;51.914;8.420;2023-07-31T05:35:40;99652.94;;;22.53
15709;BMP180;7954;51.914;8.420;2023-07-31T05:38:08;99652.25;;;22.38
15709;BMP180;7954;51.914;8.420;2023-07-31T05:40:37;99656.59;;;22.55
15709;BMP180;7954;51.914;8.420;2023-07-31T05:43:05;99663.16;;;22.44
15709;BMP180;7954;51.914;8.420;2023-07-31T05:45:36;99645.03;;;22.66
15709;BMP180;7954;51.914;8.420;2023-07-31T05:48:04;99645.31;;;22.85
15709;BMP180;7954;51.914;8.420;2023-07-31T05:50:34;99645.44;;;22.63
15709;BMP180;7954;51.914;8.420;2023-07-31T05:53:03;99642.25;;;22.80
15709;BMP180;7954;51.914;8.420;2023-07-31T05:55:31;99645.72;;;22.57
15709;BMP180;7954;51.914;8.420;2023-07-31T05:57:59;99640.22;;;22.54
15709;BMP180;7954;51.914;8.420;2023-07-31T06:00:27;99640.44;;;22.79
15709;BMP180;7954;51.914;8.420;2023-07-31T06:02:56;99640.53;;;22.72
15709;BMP180;7954;51.914;8.420;2023-07-31T06:05:24;99636.56;;;22.67
15709;BMP180;7954;51.914;8.420;2023-07-31T06:07:53;99644.28;;;22.67
15709;BMP180;7954;51.914;8.420;2023-07-31T06:10:21;99639.34;;;22.77
15709;BMP180;7954;51.914;8.420;2023-07-31T06:12:49;99637.84;;;22.79
15709;BMP180;7954;51.914;8.420;2023-07-31T06:15:18;99640.44;;;22.79
15709;BMP180;7954;51.914;8.420;2023-07-31T06:17:46;99630.44;;;22.82
15709;BMP180;7954;51.914;8.420;2023-07-31T06:20:16;99634.31;;;22.94
15709;BMP180;7954;51.914;8.420;2023-07-31T06:22:44;99626.72;;;23.11
15709;BMP180;7954;51.914;8.420;2023-07-31T06:25:12;99632.25;;;23.23
15709;BMP180;7954;51.914;8.420;2023-07-31T06:27:41;99643.00;;;23.27
15709;BMP180;7954;51.914;8.420;2023-07-31T06:30:10;99628.31;;;23.26
15709;BMP180;7954;51.914;8.420;2023-07-31T06:32:38;99626.78;;;23.28
15709;BMP180;7954;51.914;8.420;2023-07-31T06:35:07;99620.75;;;23.28
15709;BMP180;7954;51.914;8.420;2023-07-31T06:37:37;99620.59;;;23.34
15709;BMP180;7954;51.914;8.420;2023-07-31T06:40:07;99613.81;;;23.35
15709;BMP180;7954;51.914;8.420;2023-07-31T06:42:36;99598.53;;;23.45
15709;BMP180;7954;51.914;8.420;2023-07-31T06:45:05;99595.94;;;23.45
15709;BMP180;7954;51.914;8.420;2023-07-31T06:47:34;99588.06;;;23.52
15709;BMP180;7954;51.914;8.420;2023-07-31T06:50:02;99596.69;;;23.44
15709;BMP180;7954;51.914;8.420;2023-07-31T06:52:30;99602.00;;;23.45
15709;BMP180;7954;51.914;8.420;2023-07-31T06:55:04;99610.00;;;23.31
15709;BMP180;7954;51.914;8.420;2023-07-31T06:57:43;99587.72;;;23.40
15709;BMP180;7954;51.914;8.420;2023-07-31T07:00:11;99604.13;;;23.49
15709;BMP180;7954;51.914;8.420;2023-07-31T07:02:40;99596.44;;;23.58
15709;BMP180;7954;51.914;8.420;2023-07-31T07:05:08;99600.72;;;23.66
15709;BMP180;7954;51.914;8.420;2023-07-31T07:07:36;99603.22;;;23.49
15709;BMP180;7954;51.914;8.420;2023-07-31T07:10:07;99594.44;;;23.55
15709;BMP180;7954;51.914;8.420;2023-07-31T07:12:35;99597.81;;;23.63
15709;BMP180;7954;51.914;8.420;2023-07-31T07:15:04;99596.19;;;23.72
15709;BMP180;7954;51.914;8.420;2023-07-31T07:17:32;99594.84;;;23.75
15709;BMP180;7954;51.914;8.420;2023-07-31T07:20:00;99602.38;;;23.65
15709;BMP180;7954;51.914;8.420;2023-07-31T07:22:30;99602.41;;;23.74
15709;BMP180;7954;51.914;8.420;2023-07-31T07:24:58;99606.97;;;23.76
15709;BMP180;7954;51.914;8.420;2023-07-31T07:27:27;99607.38;;;23.64
15709;BMP180;7954;51.914;8.420;2023-07-31T07:29:56;99613.13;;;23.61
15709;BMP180;7954;51.914;8.420;2023-07-31T07:32:24;99647.59;;;23.38
15709;BMP180;7954;51.914;8.420;2023-07-31T07:34:52;99640.88;;;22.99
15709;BMP180;7954;51.914;8.420;2023-07-31T07:37:20;99642.03;;;22.70
15709;BMP180;7954;51.914;8.420;2023-07-31T07:39:48;99634.97;;;22.37
15709;BMP180;7954;51.914;8.420;2023-07-31T07:42:16;99632.31;;;22.29
15709;BMP180;7954;51.914;8.420;2023-07-31T07:44:46;99631.16;;;22.18
15709;BMP180;7954;51.914;8.420;2023-07-31T07:47:14;99633.13;;;22.21
15709;BMP180;7954;51.914;8.420;2023-07-31T07:49:42;99631.22;;;22.27
15709;BMP180;7954;51.914;8.420;2023-07-31T07:52:16;99620.19;;;22.28
15709;BMP180;7954;51.914;8.420;2023-07-31T07:54:44;99619.47;;;22.29
15709;BMP180;7954;51.914;8.420;2023-07-31T07:57:12;99619.47;;;22.29
15709;BMP180;7954;51.914;8.420;2023-07-31T07:59:40;99618.72;;;22.30
15709;BMP180;7954;51.914;8.420;2023-07-31T08:02:10;99621.00;;;22.35
15709;BMP180;7954;51.914;8.420;2023-07-31T08:04:38;99615.44;;;22.39
15709;BMP180;7954;51.914;8.420;2023-07-31T08:07:06;99615.75;;;22.58
15709;BMP180;7954;51.914;8.420;2023-07-31T08:09:34;99599.47;;;22.65
15709;BMP180;7954;51.914;8.420;2023-07-31T08:12:03;99603.50;;;22.87
15709;BMP180;7954;51.914;8.420;2023-07-31T08:14:32;99595.63;;;23.01
15709;BMP180;7954;51.914;8.420;2023-07-31T08:17:00;99590.34;;;23.08
15709;BMP180;7954;51.914;8.420;2023-07-31T08:19:30;99586.94;;;23.33
15709;BMP180;7954;51.914;8.420;2023-07-31T08:21:58;99580.09;;;23.66
15709;BMP180;7954;51.914;8.420;2023-07-31T08:24:25;99577.50;;;23.66
15709;BMP180;7954;51.914;8.420;2023-07-31T08:26:54;99572.16;;;23.47
15709;BMP180;7954;51.914;8.420;2023-07-31T08:29:22;99561.78;;;23.30
15709;BMP180;7954;51.914;8.420;2023-07-31T08:31:50;99569.66;;;23.24
15709;BMP180;7954;51.914;8.420;2023-07-31T08:34:18;99563.41;;;23.22
15709;BMP180;7954;51.914;8.420;2023-07-31T08:36:48;99557.22;;;23.28
15709;BMP180;7954;51.914;8.420;2023-07-31T08:39:15;99552.56;;;23.49
15709;BMP180;7954;51.914;8.420;2023-07-31T08:41:44;99561.09;;;23.48
15709;BMP180;7954;51.914;8.420;2023-07-31T08:44:12;99556.38;;;23.53
15709;BMP180;7954;51.914;8.420;2023-07-31T08:46:42;99559.38;;;23.40
15709;BMP180;7954;51.914;8.420;2023-07-31T08:49:10;99555.56;;;23.37
15709;BMP180;7954;51.914;8.420;2023-07-31T08:51:39;99559.69;;;23.35
15709;BMP180;7954;51.914;8.420;2023-07-31T08:54:10;99547.66;;;23.27
15709;BMP180;7954;51.914;8.420;2023-07-31T08:56:39;99543.09;;;23.16
15709;BMP180;7954;51.914;8.420;2023-07-31T08:59:08;99563.28;;;23.20
15709;BMP180;7954;51.914;8.420;2023-07-31T09:01:42;99556.59;;;23.14
15709;BMP180;7954;51.914;8.420;2023-07-31T09:04:12;99563.09;;;23.10
15709;BMP180;7954;51.914;8.420;2023-07-31T09:06:42;99551.25;;;23.12
15709;BMP180;7954;51.914;8.420;2023-07-31T09:09:12;99563.28;;;22.96
15709;BMP180;7954;51.914;8.420;2023-07-31T09:11:40;99556.84;;;23.08
15709;BMP180;7954;51.914;8.420;2023-07-31T09:14:08;99542.81;;;23.22
15709;BMP180;7954;51.914;8.420;2023-07-31T09:16:51;99554.66;;;23.28
15709;BMP180;7954;51.914;8.420;2023-07-31T09:19:27;99554.38;;;23.42
15709;BMP180;7954;51.914;8.420;2023-07-31T09:21:56;99559.38;;;23.40
15709;BMP180;7954;51.914;8.420;2023-07-31T09:24:30;99551.69;;;23.49
15709;BMP180;7954;51.914;8.420;2023-07-31T09:27:01;99550.16;;;23.59
15709;BMP180;7954;51.914;8.420;2023-07-31T09:29:30;99536.28;;;23.83
15709;BMP180;7954;51.914;8.420;2023-07-31T09:31:58;99543.75;;;23.88
15709;BMP180;7954;51.914;8.420;2023-07-31T09:34:30;99531.75;;;23.89
15709;BMP180;7954;51.914;8.420;2023-07-31T09:37:01;99531.13;;;23.83
15709;BMP180;7954;51.914;8.420;2023-07-31T09:39:45;99531.91;;;23.73
15709;BMP180;7954;51.914;8.420;2023-07-31T09:42:13;99528.81;;;23.69
15709;BMP180;7954;51.914;8.420;2023-07-31T09:44:41;99525.34;;;23.77
15709;BMP180;7954;51.914;8.420;2023-07-31T09:47:20;99523.09;;;23.71
15709;BMP180;7954;51.914;8.420;2023-07-31T09:49:51;99533.28;;;23.78
15709;BMP180;7954;51.914;8.420;2023-07-31T09:52:19;99525.06;;;23.82
15709;BMP180;7954;51.914;8.420;2023-07-31T09:54:49;99510.19;;;23.96
15709;BMP180;7954;51.914;8.420;2023-07-31T09:57:17;99520.06;;;23.84
15709;BMP180;7954;51.914;8.420;2023-07-31T09:59:47;99515.06;;;23.85
15709;BMP180;7954;51.914;8.420;2023-07-31T10:02:21;99511.44;;;23.83
15709;BMP180;7954;51.914;8.420;2023-07-31T10:04:50;99509.28;;;24.04
15709;BMP180;7954;51.914;8.420;2023-07-31T10:07:20;99524.63;;;23.95
15709;BMP180;7954;51.914;8.420;2023-07-31T10:09:51;99521.41;;;24.22
15709;BMP180;7954;51.914;8.420;2023-07-31T10:12:22;99514.75;;;24.33
15709;BMP180;7954;51.914;8.420;2023-07-31T10:14:54;99522.00;;;24.37
15709;BMP180;7954;51.914;8.420;2023-07-31T10:17:22;99518.69;;;24.21
15709;BMP180;7954;51.914;8.420;2023-07-31T10:19:51;99518.09;;;24.40
15709;BMP180;7954;51.914;8.420;2023-07-31T10:22:20;99526.28;;;24.28
15709;BMP180;7954;51.914;8.420;2023-07-31T10:24:48;99511.88;;;23.88
15709;BMP180;7954;51.914;8.420;2023-07-31T10:27:19;99511.66;;;23.69
15709;BMP180;7954;51.914;8.420;2023-07-31T10:29:47;99526.88;;;23.75
15709;BMP180;7954;51.914;8.420;2023-07-31T10:32:17;99523.88;;;23.87
15709;BMP180;7954;51.914;8.420;2023-07-31T10:34:45;99526.47;;;23.96
15709;BMP180;7954;51.914;8.420;2023-07-31T10:37:22;99513.06;;;23.83
15709;BMP180;7954;51.914;8.420;2023-07-31T10:39:58;99517.03;;;24.04
15709;BMP180;7954;51.914;8.420;2023-07-31T10:42:30;99502.88;;;24.35
15709;BMP180;7954;51.914;8.420;2023-07-31T10:45:00;99488.47;;;24.37
15709;BMP180;7954;51.914;8.420;2023-07-31T10:47:28;99491.34;;;24.31
15709;BMP180;7954;51.914;8.420;2023-07-31T10:50:19;99494.22;;;24.34
15709;BMP180;7954;51.914;8.420;2023-07-31T10:52:49;99486.97;;;24.13
15709;BMP180;7954;51.914;8.420;2023-07-31T10:55:27;99492.00;;;24.03
15709;BMP180;7954;51.914;8.420;2023-07-31T10:58:04;99493.97;;;24.14
15709;BMP180;7954;51.914;8.420;2023-07-31T11:00:34;99488.47;;;24.28
15709;BMP180;7954;51.914;8.420;2023-07-31T11:03:05;99495.13;;;24.35
15709;BMP180;7954;51.914;8.420;2023-07-31T11:05:49;99488.44;;;24.54
15709;BMP180;7954;51.914;8.420;2023-07-31T11:08:19;99482.47;;;24.63
15709;BMP180;7954;51.914;8.420;2023-07-31T11:10:50;99467.94;;;24.55
15709;BMP180;7954;51.914;8.420;2023-07-31T11:13:21;99468.84;;;24.56
15709;BMP180;7954;51.914;8.420;2023-07-31T11:15:50;99474.00;;;24.39
15709;BMP180;7954;51.914;8.420;2023-07-31T11:18:18;99496.22;;;24.20
15709;BMP180;7954;51.914;8.420;2023-07-31T11:20:47;99493.66;;;23.95
15709;BMP180;7954;51.914;8.420;2023-07-31T11:23:16;99500.00;;;24.15
15709;BMP180;7954;51.914;8.420;2023-07-31T11:25:45;99489.09;;;24.43
15709;BMP180;7954;51.914;8.420;2023-07-31T11:28:14;99496.16;;;24.62
15709;BMP180;7954;51.914;8.420;2023-07-31T11:30:45;99485.28;;;24.83
15709;BMP180;7954;51.914;8.420;2023-07-31T11:33:13;99483.53;;;25.09
15709;BMP180;7954;51.914;8.420;2023-07-31T11:35:44;99477.00;;;25.30
15709;BMP180;7954;51.914;8.420;2023-07-31T11:38:21;99475.75;;;25.35
15709;BMP180;7954;51.914;8.420;2023-07-31T11:40:49;99471.56;;;25.54
15709;BMP180;7954;51.914;8.420;2023-07-31T11:43:19;99474.22;;;25.64
15709;BMP180;7954;51.914;8.420;2023-07-31T11:45:50;99455.81;;;25.43
15709;BMP180;7954;51.914;8.420;2023-07-31T11:48:19;99466.25;;;25.26
15709;BMP180;7954;51.914;8.420;2023-07-31T11:50:50;99462.06;;;25.36
15709;BMP180;7954;51.914;8.420;2023-07-31T11:53:22;99473.00;;;25.42
15709;BMP180;7954;51.914;8.420;2023-07-31T11:55:53;99454.91;;;25.16
15709;BMP180;7954;51.914;8.420;2023-07-31T11:58:22;99458.59;;;25.09
15709;BMP180;7954;51.914;8.420;2023-07-31T12:00:51;99452.69;;;25.02
15709;BMP180;7954;51.914;8.420;2023-07-31T12:03:19;99448.38;;;24.84
15709;BMP180;7954;51.914;8.420;2023-07-31T12:05:48;99457.25;;;24.96
15709;BMP180;7954;51.914;8.420;2023-07-31T12:08:16;99450.09;;;25.10
15709;BMP180;7954;51.914;8.420;2023-07-31T12:10:44;99451.56;;;25.17
15709;BMP180;7954;51.914;8.420;2023-07-31T12:13:20;99451.88;;;25.20
15709;BMP180;7954;51.914;8.420;2023-07-31T12:15:48;99441.78;;;25.23
15709;BMP180;7954;51.914;8.420;2023-07-31T12:18:20;99442.63;;;25.31
15709;BMP180;7954;51.914;8.420;2023-07-31T12:20:54;99464.25;;;25.32
15709;BMP180;7954;51.914;8.420;2023-07-31T12:23:24;99447.13;;;25.42
15709;BMP180;7954;51.914;8.420;2023-07-31T12:26:02;99443.97;;;25.36
15709;BMP180;7954;51.914;8.420;2023-07-31T12:28:30;99445.97;;;25.30
15709;BMP180;7954;51.914;8.420;2023-07-31T12:31:02;99449.06;;;25.00
15709;BMP180;7954;51.914;8.420;2023-07-31T12:33:33;99443.78;;;24.90
15709;BMP180;7954;51.914;8.420;2023-07-31T12:36:04;99442.63;;;24.78
15709;BMP180;7954;51.914;8.420;2023-07-31T12:38:32;99449.31;;;24.76
15709;BMP180;7954;51.914;8.420;2023-07-31T12:41:01;99451.53;;;24.55
15709;BMP180;7954;51.914;8.420;2023-07-31T12:43:29;99446.09;;;24.43
15709;BMP180;7954;51.914;8.420;2023-07-31T12:45:57;99449.34;;;24.15
15709;BMP180;7954;51.914;8.420;2023-07-31T12:48:25;99450.84;;;24.05
15709;BMP180;7954;51.914;8.420;2023-07-31T12:50:54;99460.28;;;23.88
15709;BMP180;7954;51.914;8.420;2023-07-31T12:53:23;99454.38;;;23.89
15709;BMP180;7954;51.914;8.420;2023-07-31T12:55:50;99469.09;;;23.90
15709;BMP180;7954;51.914;8.420;2023-07-31T12:58:19;99452.66;;;24.23
15709;BMP180;7954;51.914;8.420;2023-07-31T13:00:47;99450.94;;;24.49
15709;BMP180;7954;51.914;8.420;2023-07-31T13:03:15;99440.06;;;25.05
15709;BMP180;7954;51.914;8.420;2023-07-31T13:05:43;99459.25;;;26.07
15709;BMP180;7954;51.914;8.420;2023-07-31T13:08:12;99422.53;;;26.77
15709;BMP180;7954;51.914;8.420;2023-07-31T13:10:42;99422.84;;;26.52
15709;BMP180;7954;51.914;8.420;2023-07-31T13:13:10;99426.06;;;26.40
15709;BMP180;7954;51.914;8.420;2023-07-31T13:15:38;99422.75;;;26.70
15709;BMP180;7954;51.914;8.420;2023-07-31T13:18:07;99430.63;;;27.10
15709;BMP180;7954;51.914;8.420;2023-07-31T13:20:35;99430.81;;;27.61
15709;BMP180;7954;51.914;8.420;2023-07-31T13:23:03;99397.84;;;29.07
15709;BMP180;7954;51.914;8.420;2023-07-31T13:25:32;99395.31;;;29.62
15709;BMP180;7954;51.914;8.420;2023-07-31T13:28:00;99370.56;;;29.34
15709;BMP180;7954;51.914;8.420;2023-07-31T13:30:29;99374.53;;;28.54
15709;BMP180;7954;51.914;8.420;2023-07-31T13:32:57;99377.38;;;27.85
15709;BMP180;7954;51.914;8.420;2023-07-31T13:35:26;99368.13;;;27.98
15709;BMP180;7954;51.914;8.420;2023-07-31T13:37:54;99377.63;;;27.97
15709;BMP180;7954;51.914;8.420;2023-07-31T13:40:22;99386.25;;;28.49
15709;BMP180;7954;51.914;8.420;2023-07-31T13:42:52;99390.53;;;28.70
15709;BMP180;7954;51.914;8.420;2023-07-31T13:45:21;99376.25;;;29.08
15709;BMP180;7954;51.914;8.420;2023-07-31T13:47:50;99383.78;;;30.74
15709;BMP180;7954;51.914;8.420;2023-07-31T13:50:18;99358.91;;;31.15
15709;BMP180;7954;51.914;8.420;2023-07-31T13:52:48;99353.41;;;30.99
15709;BMP180;7954;51.914;8.420;2023-07-31T13:55:16;99354.75;;;30.46
15709;BMP180;7954;51.914;8.420;2023-07-31T13:57:44;99352.72;;;30.30
15709;BMP180;7954;51.914;8.420;2023-07-31T14:00:15;99354.25;;;29.92
15709;BMP180;7954;51.914;8.420;2023-07-31T14:02:43;99357.41;;;29.77
15709;BMP180;7954;51.914;8.420;2023-07-31T14:05:11;99339.38;;;29.80
15709;BMP180;7954;51.914;8.420;2023-07-31T14:07:39;99340.53;;;29.05
15709;BMP180;7954;51.914;8.420;2023-07-31T14:10:08;99349.56;;;28.77
15709;BMP180;7954;51.914;8.420;2023-07-31T14:12:36;99339.78;;;28.42
15709;BMP180;7954;51.914;8.420;2023-07-31T14:15:09;99336.47;;;28.02
15709;BMP180;7954;51.914;8.420;2023-07-31T14:17:39;99339.25;;;27.84
15709;BMP180;7954;51.914;8.420;2023-07-31T14:20:08;99333.63;;;27.58
15709;BMP180;7954;51.914;8.420;2023-07-31T14:22:37;99336.75;;;27.44
15709;BMP180;7954;51.914;8.420;2023-07-31T14:25:06;99359.94;;;27.42
15709;BMP180;7954;51.914;8.420;2023-07-31T14:27:37;99353.13;;;27.13
15709;BMP180;7954;51.914;8.420;2023-07-31T14:30:06;99360.63;;;27.10
15709;BMP180;7954;51.914;8.420;2023-07-31T14:32:34;99365.00;;;26.91
15709;BMP180;7954;51.914;8.420;2023-07-31T14:35:06;99366.28;;;26.86